Rose, Kansas
Current Conditions -  °F | °C
As of 1:52 PM on Friday 28 Nov 2014 (Local Time) from KCNU Reporting Station
Clear Clear  
Wind Chill: 61°   Ceiling: Unl
Heat Index: 61°   Visibility: 10mi
Dew Point: 34°   Wind: 22mph
Humidity: 36%   Direction: 190°S
Pressure: 29.86"   Gusts: 29mph
Location:  37.893°N, 95.7469°W
Report Text: KCNU 281952Z AUTO 19019G25KT 10SM CLR 16/01 A2986 RMK AO2 PK WND 19028/1905 SLP113 T01610011
Loading
Personal Weather Stations






























Interactive Weather Map New forecast layout! Learn more

10-Day Weather Forecast

Advertisements
Track Severe Weather on mobile